Time;durP1;ratioP1;P1;durP2;ratioP2;P2;SDS_P1;SDS_P2;PMS_P1;PMS_P2;Temp;Humidity;BMP_temperature;BMP_pressure;BME280_temperature;BME280_humidity;BME280_pressure;Samples;Min_cycle;Max_cycle;Signal;HPM_P1;HPM_P2
2021/05/30 00:00:11;;;;;;;9.80;5.53;;;;;;;;;;3534395;40;20087;-62
2021/05/30 00:02:37;;;;;;;10.60;6.55;;;;;;;;;;3535824;40;20139;-60
2021/05/30 00:05:05;;;;;;;11.98;6.55;;;;;;;;;;3538149;40;20387;-61
2021/05/30 00:07:31;;;;;;;11.57;6.97;;;;;;;;;;3536089;40;20136;-61
2021/05/30 00:09:57;;;;;;;16.38;7.72;;;;;;;;;;3537331;40;20062;-61
2021/05/30 00:12:23;;;;;;;12.82;6.22;;;;;;;;;;3535541;40;20038;-61
2021/05/30 00:14:50;;;;;;;14.88;6.13;;;;;;;;;;3534178;40;20026;-60
2021/05/30 00:17:16;;;;;;;11.52;5.90;;;;;;;;;;3532888;40;20031;-60
2021/05/30 00:19:43;;;;;;;18.20;6.82;;;;;;;;;;3530149;40;20682;-60
2021/05/30 00:22:09;;;;;;;11.45;6.60;;;;;;;;;;3533598;40;20032;-60
2021/05/30 00:24:36;;;;;;;14.73;7.18;;;;;;;;;;3535469;40;20138;-60
2021/05/30 00:27:02;;;;;;;11.68;6.93;;;;;;;;;;3537746;40;20038;-61
2021/05/30 00:29:28;;;;;;;10.65;6.78;;;;;;;;;;3533009;40;20042;-60
2021/05/30 00:31:54;;;;;;;12.70;6.07;;;;;;;;;;3531317;40;20031;-60
2021/05/30 00:34:20;;;;;;;9.80;6.05;;;;;;;;;;3533386;40;20038;-61
2021/05/30 00:36:46;;;;;;;13.48;6.63;;;;;;;;;;3535215;40;20035;-60
2021/05/30 00:39:12;;;;;;;10.02;6.80;;;;;;;;;;3537055;40;20039;-60
2021/05/30 00:41:38;;;;;;;13.52;7.18;;;;;;;;;;3537194;40;20094;-60
2021/05/30 00:44:19;;;;;;;16.15;7.32;;;;;;;;;;3539978;40;20041;-60
2021/05/30 00:46:45;;;;;;;15.38;7.65;;;;;;;;;;3540752;40;20780;-61
2021/05/30 00:49:11;;;;;;;12.70;7.90;;;;;;;;;;3537689;40;20041;-61
2021/05/30 00:51:37;;;;;;;13.85;7.60;;;;;;;;;;3535669;40;20029;-60
2021/05/30 00:54:03;;;;;;;14.38;7.97;;;;;;;;;;3537482;40;20392;-60
2021/05/30 00:56:30;;;;;;;12.13;7.15;;;;;;;;;;3539857;40;20026;-60
2021/05/30 00:58:56;;;;;;;14.93;7.80;;;;;;;;;;3539548;40;20038;-61
2021/05/30 01:01:22;;;;;;;12.18;7.72;;;;;;;;;;3539534;40;20034;-61
2021/05/30 01:03:48;;;;;;;16.58;7.78;;;;;;;;;;3537549;40;20035;-60
2021/05/30 01:06:14;;;;;;;14.50;8.13;;;;;;;;;;3535654;40;20034;-60
2021/05/30 01:08:40;;;;;;;14.88;8.00;;;;;;;;;;3532382;40;20053;-60
2021/05/30 01:11:13;;;;;;;18.23;8.50;;;;;;;;;;3532324;40;20734;-60
2021/05/30 01:13:39;;;;;;;18.42;8.20;;;;;;;;;;3531892;40;20099;-60
2021/05/30 01:16:05;;;;;;;14.00;7.90;;;;;;;;;;3534691;40;20034;-60
2021/05/30 01:18:31;;;;;;;19.15;8.73;;;;;;;;;;3535868;40;20045;-61
2021/05/30 01:20:58;;;;;;;16.60;8.20;;;;;;;;;;3537361;40;20038;-60
2021/05/30 01:23:24;;;;;;;15.25;8.27;;;;;;;;;;3538875;40;20046;-61
2021/05/30 01:25:50;;;;;;;19.45;9.35;;;;;;;;;;3536846;40;20054;-60
2021/05/30 01:28:17;;;;;;;16.77;8.32;;;;;;;;;;3533621;40;20045;-60
2021/05/30 01:30:44;;;;;;;20.02;8.88;;;;;;;;;;3534904;40;20477;-60
2021/05/30 01:33:10;;;;;;;14.55;8.60;;;;;;;;;;3527650;40;20069;-60
2021/05/30 01:35:36;;;;;;;20.55;9.15;;;;;;;;;;3539123;40;20035;-60
2021/05/30 01:38:02;;;;;;;17.42;8.27;;;;;;;;;;3540083;40;20103;-61
2021/05/30 01:40:28;;;;;;;18.15;8.70;;;;;;;;;;3538971;40;20076;-60
2021/05/30 01:42:55;;;;;;;16.05;8.23;;;;;;;;;;3536573;40;20042;-61
2021/05/30 01:45:22;;;;;;;18.90;8.55;;;;;;;;;;3535953;40;20042;-60
2021/05/30 01:47:48;;;;;;;20.25;8.65;;;;;;;;;;3533923;40;20700;-61
2021/05/30 01:50:15;;;;;;;15.50;8.63;;;;;;;;;;3530385;40;20035;-60
2021/05/30 01:52:42;;;;;;;14.70;8.27;;;;;;;;;;3531944;40;20027;-60
2021/05/30 01:55:17;;;;;;;19.42;8.32;;;;;;;;;;3534774;40;20022;-61
2021/05/30 01:57:44;;;;;;;18.92;8.60;;;;;;;;;;3535573;40;20046;-60
2021/05/30 02:00:11;;;;;;;14.30;8.32;;;;;;;;;;3535413;40;20038;-60
2021/05/30 02:02:38;;;;;;;16.30;8.65;;;;;;;;;;3533019;40;20046;-61
2021/05/30 02:05:05;;;;;;;18.75;8.35;;;;;;;;;;3531723;40;20098;-60
2021/05/30 02:07:33;;;;;;;14.70;7.72;;;;;;;;;;3532433;40;20046;-60
2021/05/30 02:10:01;;;;;;;16.70;8.45;;;;;;;;;;3534720;40;20039;-60
2021/05/30 02:12:28;;;;;;;17.65;8.15;;;;;;;;;;3534514;40;20050;-60
2021/05/30 02:14:57;;;;;;;14.77;8.27;;;;;;;;;;3536164;40;20042;-60
2021/05/30 02:17:24;;;;;;;14.77;8.10;;;;;;;;;;3534006;40;20030;-61
2021/05/30 02:19:51;;;;;;;14.65;8.38;;;;;;;;;;3532878;40;20135;-61
2021/05/30 02:22:17;;;;;;;14.25;7.97;;;;;;;;;;3536170;40;20034;-61
2021/05/30 02:24:44;;;;;;;15.30;7.97;;;;;;;;;;3536698;40;20064;-60
2021/05/30 02:27:11;;;;;;;13.45;8.32;;;;;;;;;;3536127;40;20027;-60
2021/05/30 02:29:38;;;;;;;16.25;8.35;;;;;;;;;;3536350;40;20049;-60
2021/05/30 02:32:05;;;;;;;14.70;8.65;;;;;;;;;;3531345;40;20043;-60
2021/05/30 02:34:31;;;;;;;17.23;8.57;;;;;;;;;;3537955;40;20027;-60
2021/05/30 02:36:57;;;;;;;16.35;9.05;;;;;;;;;;3536423;40;20046;-60
2021/05/30 02:39:24;;;;;;;14.85;8.80;;;;;;;;;;3535631;40;20711;-60
2021/05/30 02:41:50;;;;;;;20.17;8.95;;;;;;;;;;3532959;40;20031;-61
2021/05/30 02:44:16;;;;;;;15.02;8.48;;;;;;;;;;3532632;40;20046;-60
2021/05/30 02:46:42;;;;;;;18.13;9.88;;;;;;;;;;3534955;40;20056;-60
2021/05/30 02:49:09;;;;;;;22.08;9.88;;;;;;;;;;3534644;40;20078;-61
2021/05/30 02:51:35;;;;;;;18.02;9.48;;;;;;;;;;3535455;40;20278;-60
2021/05/30 02:54:01;;;;;;;14.13;8.98;;;;;;;;;;3538004;40;20069;-61
2021/05/30 02:56:28;;;;;;;18.52;9.63;;;;;;;;;;3539553;40;20053;-60
2021/05/30 02:58:54;;;;;;;16.85;8.95;;;;;;;;;;3538376;40;20557;-60
2021/05/30 03:01:20;;;;;;;17.33;9.52;;;;;;;;;;3536344;40;20054;-61
2021/05/30 03:03:47;;;;;;;15.38;8.57;;;;;;;;;;3536854;40;20042;-60
2021/05/30 03:06:14;;;;;;;18.60;9.38;;;;;;;;;;3535597;40;20070;-61
2021/05/30 03:08:40;;;;;;;18.85;10.30;;;;;;;;;;3535584;40;20043;-61
2021/05/30 03:11:08;;;;;;;19.70;9.18;;;;;;;;;;3534526;40;20387;-61
2021/05/30 03:13:34;;;;;;;17.55;9.15;;;;;;;;;;3539086;40;20140;-60
2021/05/30 03:16:00;;;;;;;18.45;9.50;;;;;;;;;;3537919;40;20038;-60
2021/05/30 03:18:26;;;;;;;16.58;10.07;;;;;;;;;;3536981;40;20042;-61
2021/05/30 03:20:53;;;;;;;18.63;10.07;;;;;;;;;;3538501;40;20034;-61
2021/05/30 03:23:19;;;;;;;17.00;9.30;;;;;;;;;;3536824;40;20042;-60
2021/05/30 03:25:45;;;;;;;15.27;8.68;;;;;;;;;;3535693;40;20021;-60
2021/05/30 03:28:11;;;;;;;18.05;9.45;;;;;;;;;;3538270;40;20039;-61
2021/05/30 03:30:37;;;;;;;15.88;9.13;;;;;;;;;;3535996;40;20079;-60
2021/05/30 03:33:04;;;;;;;17.42;9.85;;;;;;;;;;3537498;40;20320;-60
2021/05/30 03:35:30;;;;;;;22.45;11.18;;;;;;;;;;3532801;40;20781;-61
2021/05/30 03:37:57;;;;;;;21.40;10.88;;;;;;;;;;3537665;40;20031;-60
2021/05/30 03:40:28;;;;;;;17.90;9.88;;;;;;;;;;3536538;40;20034;-60
2021/05/30 03:42:55;;;;;;;23.67;10.05;;;;;;;;;;3536423;40;20050;-60
2021/05/30 03:45:21;;;;;;;22.25;10.23;;;;;;;;;;3538157;40;20031;-60
2021/05/30 03:47:48;;;;;;;25.38;12.07;;;7.40;99.90;;;;;;3537659;40;20102;-61
2021/05/30 03:50:14;;;;;;;20.55;11.88;;;7.40;99.90;;;;;;3540582;40;20035;-61
2021/05/30 03:52:40;;;;;;;18.65;10.48;;;7.30;99.90;;;;;;3537415;40;20570;-61
2021/05/30 03:55:07;;;;;;;20.63;11.27;;;7.90;99.90;;;;;;3536307;40;20825;-61
2021/05/30 03:57:38;;;;;;;23.65;11.05;;;7.30;99.90;;;;;;3539995;40;20039;-61
2021/05/30 04:00:12;;;;;;;21.02;10.55;;;7.30;99.90;;;;;;3532305;40;20034;-61
2021/05/30 04:02:38;;;;;;;19.20;10.93;;;7.30;99.90;;;;;;3538237;40;20055;-61
2021/05/30 04:05:04;;;;;;;21.88;11.15;;;7.30;99.90;;;;;;3536717;40;20404;-61
2021/05/30 04:07:32;;;;;;;25.05;12.48;;;7.40;99.90;;;;;;3540554;40;20557;-62
2021/05/30 04:10:06;;;;;;;22.75;12.38;;;7.40;99.90;;;;;;3538580;40;20074;-68
2021/05/30 04:12:33;;;;;;;23.95;12.00;;;7.50;99.90;;;;;;3538387;40;20046;-68
2021/05/30 04:14:59;;;;;;;26.85;12.73;;;7.50;99.90;;;;;;3541269;40;20491;-68
2021/05/30 04:17:25;;;;;;;19.65;12.43;;;7.20;99.90;;;;;;3541028;40;20057;-68
2021/05/30 04:19:51;;;;;;;20.15;12.18;;;;;;;;;;3538690;40;20041;-68
2021/05/30 04:22:17;;;;;;;32.28;13.20;;;;;;;;;;3537436;40;20700;-68
2021/05/30 04:24:43;;;;;;;20.30;11.82;;;;;;;;;;3535437;40;20620;-68
2021/05/30 04:27:10;;;;;;;26.35;12.10;;;;;;;;;;3537447;40;20148;-68
2021/05/30 04:29:36;;;;;;;22.95;12.43;;;;;;;;;;3537856;40;20043;-68
2021/05/30 04:32:02;;;;;;;24.92;13.02;;;;;;;;;;3537131;40;20046;-68
2021/05/30 04:34:31;;;;;;;28.85;13.27;;;;;;;;;;3539954;40;20130;-68
2021/05/30 04:36:57;;;;;;;27.00;12.48;;;;;;;;;;3537533;40;20509;-68
2021/05/30 04:39:26;;;;;;;30.15;14.63;;;;;;;;;;3538791;40;20027;-68
2021/05/30 04:41:54;;;;;;;22.02;12.32;;;;;;;;;;3535829;40;20038;-68
2021/05/30 04:44:21;;;;;;;26.10;12.18;;;;;;;;;;3535567;40;20097;-68
2021/05/30 04:46:47;;;;;;;24.17;12.80;;;;;;;;;;3539335;40;20040;-68
2021/05/30 04:49:13;;;;;;;26.02;12.35;;;;;;;;;;3536418;40;20046;-68
2021/05/30 04:51:40;;;;;;;22.35;11.63;;;;;;;;;;3536586;40;20067;-68
2021/05/30 04:54:06;;;;;;;21.85;12.18;;;;;;;;;;3537344;40;20109;-68
2021/05/30 04:56:32;;;;;;;24.88;12.20;;;;;;;;;;3540860;40;20038;-68
2021/05/30 04:58:58;;;;;;;20.63;11.40;;;;;;;;;;3540422;40;20035;-67
2021/05/30 05:01:24;;;;;;;19.75;10.82;;;;;;;;;;3536764;40;20030;-68
2021/05/30 05:03:51;;;;;;;18.30;9.43;;;;;;;;;;3539384;40;20773;-68
2021/05/30 05:06:17;;;;;;;16.48;8.90;;;;;;;;;;3539076;40;20113;-68
2021/05/30 05:08:43;;;;;;;18.50;8.52;;;;;;;;;;3531341;40;20711;-68
2021/05/30 05:11:09;;;;;;;14.07;7.97;;;;;;;;;;3536556;40;20038;-68
2021/05/30 05:13:36;;;;;;;16.50;7.43;;;;;;;;;;3536937;40;20054;-68
2021/05/30 05:16:03;;;;;;;10.70;6.75;;;;;;;;;;3539484;40;20039;-68
2021/05/30 05:18:32;;;;;;;10.70;5.78;;;;;;;;;;3536453;40;20051;-68
2021/05/30 05:20:59;;;;;;;9.88;5.50;;;;;;;;;;3534406;40;20428;-68
2021/05/30 05:23:25;;;;;;;9.70;5.82;;;;;;;;;;3537171;40;20712;-68
2021/05/30 05:25:52;;;;;;;9.13;4.95;;;;;;;;;;3538681;40;20042;-68
2021/05/30 05:28:19;;;;;;;9.52;5.43;;;;;;;;;;3538557;40;20305;-68
2021/05/30 05:30:46;;;;;;;12.38;5.30;;;;;;;;;;3535703;40;20049;-68
2021/05/30 05:33:12;;;;;;;8.93;5.22;;;;;;;;;;3536695;40;20046;-68
2021/05/30 05:35:38;;;;;;;7.68;4.30;;;;;;;;;;3538829;40;20034;-68
2021/05/30 05:38:05;;;;;;;13.85;4.78;;;;;;;;;;3538229;40;20035;-67
2021/05/30 05:40:31;;;;;;;11.95;5.07;;;;;;;;;;3537266;40;20042;-68
2021/05/30 05:42:57;;;;;;;10.68;4.25;;;;;;;;;;3537098;40;20416;-68
2021/05/30 05:45:24;;;;;;;7.45;3.90;;;;;;;;;;3537665;40;20468;-68
2021/05/30 05:47:51;;;;;;;8.05;3.90;;;;;;;;;;3533958;40;20044;-68
2021/05/30 05:50:18;;;;;;;9.80;4.13;;;;;;;;;;3538146;40;20036;-68
2021/05/30 05:52:44;;;;;;;6.63;3.70;;;11.80;99.90;;;;;;3531963;40;20045;-68
2021/05/30 05:55:11;;;;;;;7.13;3.78;;;;;;;;;;3535866;40;20042;-68
2021/05/30 05:57:37;;;;;;;8.05;3.47;;;;;;;;;;3537520;40;20043;-68
2021/05/30 06:00:05;;;;;;;9.50;3.67;;;;;;;;;;3534766;40;20034;-68
2021/05/30 06:02:35;;;;;;;6.28;3.03;;;;;;;;;;3536502;40;20074;-68
2021/05/30 06:05:02;;;;;;;7.63;3.28;;;;;;;;;;3538698;40;20035;-68
2021/05/30 06:07:28;;;;;;;7.60;2.85;;;;;;;;;;3535932;40;20038;-68
2021/05/30 06:09:54;;;;;;;6.10;3.00;;;;;;;;;;3537891;40;20085;-68
2021/05/30 06:12:20;;;;;;;8.85;3.10;;;;;;;;;;3535837;40;20077;-68
2021/05/30 06:14:46;;;;;;;5.18;2.95;;;;;;;;;;3536553;40;20035;-68
2021/05/30 06:17:12;;;;;;;7.45;2.67;;;;;;;;;;3533239;40;20035;-68
2021/05/30 06:19:39;;;;;;;8.32;2.72;;;;;;;;;;3536188;40;20046;-68
2021/05/30 06:22:06;;;;;;;4.15;2.70;;;;;;;;;;3538856;40;20398;-68
2021/05/30 06:24:32;;;;;;;6.25;2.38;;;;;;;;;;3536662;40;20459;-68
2021/05/30 06:26:59;;;;;;;6.72;2.70;;;13.40;99.90;;;;;;3537916;40;20035;-69
2021/05/30 06:29:25;;;;;;;8.65;4.07;;;13.90;99.90;;;;;;3539345;40;20041;-69
2021/05/30 06:31:51;;;;;;;8.07;3.40;;;;;;;;;;3537233;40;20047;-69
2021/05/30 06:34:17;;;;;;;8.02;2.75;;;;;;;;;;3536612;40;20046;-68
2021/05/30 06:36:45;;;;;;;6.85;2.60;;;13.20;99.90;;;;;;3537917;40;20034;-68
2021/05/30 06:39:11;;;;;;;4.63;2.33;;;;;;;;;;3544826;40;20053;-68
2021/05/30 06:41:38;;;;;;;9.70;2.20;;;13.40;96.70;;;;;;3539469;40;20056;-68
2021/05/30 06:44:05;;;;;;;7.00;2.40;;;14.10;96.10;;;;;;3539086;40;20053;-68
2021/05/30 06:46:32;;;;;;;7.15;2.67;;;14.20;96.20;;;;;;3537784;40;20046;-68
2021/05/30 06:48:58;;;;;;;4.47;2.35;;;;;;;;;;3536065;40;20050;-69
2021/05/30 06:51:29;;;;;;;7.72;2.72;;;14.40;95.00;;;;;;3533996;40;20026;-69
2021/05/30 06:53:56;;;;;;;5.55;2.47;;;14.50;95.60;;;;;;3536909;40;20101;-68
2021/05/30 06:56:22;;;;;;;8.55;3.03;;;;;;;;;;3537344;40;20617;-68
2021/05/30 06:58:48;;;;;;;11.57;3.05;;;14.40;95.60;;;;;;3533255;40;20052;-68
2021/05/30 07:01:16;;;;;;;4.97;2.20;;;14.50;95.80;;;;;;3533239;40;20318;-68
2021/05/30 07:03:42;;;;;;;9.27;2.70;;;14.70;95.40;;;;;;3535082;40;20514;-67
2021/05/30 07:06:08;;;;;;;6.32;2.13;;;;;;;;;;3533462;40;20055;-67
2021/05/30 07:08:34;;;;;;;7.78;3.42;;;;;;;;;;3537037;40;20047;-68
2021/05/30 07:11:00;;;;;;;5.50;2.38;;;;;;;;;;3530799;40;20031;-67
2021/05/30 07:13:27;;;;;;;13.10;3.83;;;;;;;;;;3534135;40;20147;-67
2021/05/30 07:15:53;;;;;;;10.63;5.20;;;14.30;90.70;;;;;;3536017;40;20043;-66
2021/05/30 07:18:20;;;;;;;6.18;2.72;;;;;;;;;;3535145;40;20806;-66
2021/05/30 07:20:47;;;;;;;10.25;2.22;;;;;;;;;;3540109;40;20066;-67
2021/05/30 07:23:14;;;;;;;4.72;2.50;;;;;;;;;;3538641;40;20045;-67
2021/05/30 07:25:40;;;;;;;6.45;2.35;;;;;;;;;;3536356;40;20038;-67
2021/05/30 07:28:06;;;;;;;6.78;3.17;;;;;;;;;;3538007;40;20039;-66
2021/05/30 07:30:33;;;;;;;5.53;2.80;;;15.90;87.50;;;;;;3538678;40;20027;-67
2021/05/30 07:33:01;;;;;;;7.82;2.72;;;;;;;;;;3535038;40;20042;-67
2021/05/30 07:35:27;;;;;;;4.82;2.65;;;;;;;;;;3539437;40;20046;-67
2021/05/30 07:37:54;;;;;;;12.00;2.40;;;;;;;;;;3536720;40;20074;-67
2021/05/30 07:40:20;;;;;;;7.72;2.58;;;;;;;;;;3535745;40;20030;-66
2021/05/30 07:42:46;;;;;;;7.68;2.40;;;;;;;;;;3535835;40;20439;-67
2021/05/30 07:45:13;;;;;;;9.43;2.17;;;;;;;;;;3534232;40;20832;-67
2021/05/30 07:47:39;;;;;;;6.07;2.40;;;;;;;;;;3537117;40;20039;-67
2021/05/30 07:50:06;;;;;;;7.85;2.20;;;;;;;;;;3538641;40;20050;-67
2021/05/30 07:52:32;;;;;;;3.20;2.10;;;;;;;;;;3538947;40;20049;-67
2021/05/30 07:54:58;;;;;;;9.90;2.60;;;;;;;;;;3537951;40;20744;-67
2021/05/30 07:57:24;;;;;;;3.70;1.80;;;;;;;;;;3534943;40;20027;-67
2021/05/30 07:59:51;;;;;;;5.80;2.30;;;;;;;;;;3539543;40;20030;-67
2021/05/30 08:02:17;;;;;;;5.60;1.90;;;;;;;;;;3536766;40;20035;-66
2021/05/30 08:04:44;;;;;;;7.25;2.10;;;;;;;;;;3534755;40;20063;-66
2021/05/30 08:07:10;;;;;;;3.55;1.92;;;;;;;;;;3538294;40;20042;-66
2021/05/30 08:09:36;;;;;;;5.75;1.80;;;;;;;;;;3536604;40;20032;-68
2021/05/30 08:12:03;;;;;;;3.50;1.90;;;;;;;;;;3536426;40;20026;-65
2021/05/30 08:14:29;;;;;;;3.30;1.60;;;;;;;;;;3539587;40;20136;-66
2021/05/30 08:16:57;;;;;;;6.68;1.75;;;;;;;;;;3537245;40;20056;-66
2021/05/30 08:19:25;;;;;;;13.52;4.05;;;;;;;;;;3536496;40;20157;-67
2021/05/30 08:21:51;;;;;;;2.78;1.45;;;;;;;;;;3536537;40;20046;-67
2021/05/30 08:24:18;;;;;;;6.53;1.73;;;;;;;;;;3537743;40;20062;-68
2021/05/30 08:26:44;;;;;;;4.00;1.70;;;18.90;67.60;;;;;;3538279;40;20034;-69
2021/05/30 08:29:10;;;;;;;8.38;3.00;;;;;;;;;;3538528;40;20217;-68
2021/05/30 08:31:36;;;;;;;4.80;1.73;;;;;;;;;;3539460;40;20045;-67
2021/05/30 08:34:02;;;;;;;4.78;2.03;;;;;;;;;;3536938;40;20036;-68
2021/05/30 08:36:28;;;;;;;9.93;1.90;;;;;;;;;;3538433;40;20042;-68
2021/05/30 08:38:55;;;;;;;6.85;1.85;;;;;;;;;;3538805;40;20093;-68
2021/05/30 08:41:21;;;;;;;3.85;1.70;;;;;;;;;;3538666;40;20037;-67
2021/05/30 08:43:47;;;;;;;4.07;1.63;;;;;;;;;;3538220;40;20057;-66
2021/05/30 08:46:14;;;;;;;5.30;2.50;;;;;;;;;;3535544;40;20336;-66
2021/05/30 08:48:40;;;;;;;3.97;2.30;;;;;;;;;;3535589;40;20750;-66
2021/05/30 08:51:06;;;;;;;4.78;1.95;;;;;;;;;;3537718;40;20053;-67
2021/05/30 08:53:34;;;;;;;5.22;1.77;;;;;;;;;;3536502;40;20081;-67
2021/05/30 08:56:00;;;;;;;4.28;1.92;;;;;;;;;;3539709;40;20049;-66
2021/05/30 08:58:37;;;;;;;5.60;1.80;;;;;;;;;;3537643;40;20043;-65
2021/05/30 09:01:07;;;;;;;4.07;1.50;;;;;;;;;;3535597;40;20506;-67
2021/05/30 09:03:33;;;;;;;3.33;1.67;;;;;;;;;;3537076;40;20034;-68
2021/05/30 09:06:14;;;;;;;6.57;1.77;;;21.90;54.40;;;;;;3534354;40;20054;-67
2021/05/30 09:08:44;;;;;;;3.40;1.70;;;;;;;;;;3534598;40;20317;-65
2021/05/30 09:11:11;;;;;;;10.90;1.88;;;;;;;;;;3535310;40;20050;-66
2021/05/30 09:13:54;;;;;;;6.47;1.52;;;;;;;;;;3538818;40;20050;-66
2021/05/30 09:16:21;;;;;;;4.28;1.80;;;;;;;;;;3535414;40;20042;-65
2021/05/30 09:18:47;;;;;;;7.03;1.40;;;;;;;;;;3536585;40;20035;-66
2021/05/30 09:21:14;;;;;;;12.63;1.30;;;;;;;;;;3540116;40;20042;-66
2021/05/30 09:23:40;;;;;;;5.88;1.90;;;;;;;;;;3535256;40;20035;-65
2021/05/30 09:26:07;;;;;;;4.60;1.45;;;;;;;;;;3538032;40;20109;-65
2021/05/30 09:28:33;;;;;;;3.05;1.70;;;;;;;;;;3536445;40;20440;-65
2021/05/30 09:31:02;;;;;;;3.75;1.40;;;;;;;;;;3537620;40;20050;-66
2021/05/30 09:33:32;;;;;;;6.00;1.73;;;;;;;;;;3536739;40;20039;-66
2021/05/30 09:36:00;;;;;;;3.80;1.70;;;;;;;;;;3534041;40;20034;-65
2021/05/30 09:38:31;;;;;;;5.85;1.83;;;;;;;;;;3535864;40;20409;-66
2021/05/30 09:41:02;;;;;;;6.75;1.60;;;;;;;;;;3535471;40;20046;-66
2021/05/30 09:43:31;;;;;;;3.97;1.40;;;;;;;;;;3535495;40;20064;-66
2021/05/30 09:46:03;;;;;;;12.30;6.65;;;;;;;;;;3538683;40;20038;-65
2021/05/30 09:48:29;;;;;;;3.15;1.63;;;;;;;;;;3539998;40;20117;-66
2021/05/30 09:53:50;;;;;;;4.63;1.60;;;;;;;;;;3535906;40;20076;-66
2021/05/30 09:56:25;;;;;;;6.32;1.70;;;;;;;;;;3538248;40;20074;-66
2021/05/30 09:58:51;;;;;;;;;;;;;;;;;;3532762;40;20038;-66
2021/05/30 10:01:17;;;;;;;10.02;1.58;;;;;;;;;;3533351;40;19964;-65
2021/05/30 10:03:44;;;;;;;4.32;2.35;;;;;;;;;;3534114;40;20136;-65
2021/05/30 10:06:10;;;;;;;3.00;1.75;;;;;;;;;;3536608;40;20182;-64
2021/05/30 10:08:36;;;;;;;3.60;1.60;;;;;;;;;;3537554;40;20042;-66
2021/05/30 10:11:02;;;;;;;2.95;1.77;;;;;;;;;;3537714;40;20027;-65
2021/05/30 10:13:29;;;;;;;6.00;1.50;;;;;;;;;;3533895;40;20034;-66
2021/05/30 10:15:55;;;;;;;5.78;1.77;;;;;;;;;;3536896;40;20636;-64
2021/05/30 10:18:28;;;;;;;2.58;1.60;;;;;;;;;;3533527;40;20042;-65
2021/05/30 10:20:55;;;;;;;9.68;3.47;;;23.30;49.40;;;;;;3535948;40;20050;-65
2021/05/30 10:23:22;;;;;;;3.72;2.10;;;23.20;70.30;;;;;;3539099;40;20190;-65
2021/05/30 10:25:48;;;;;;;6.25;1.98;;;;;;;;;;3537674;40;20499;-65
2021/05/30 10:28:19;;;;;;;4.95;2.78;;;22.90;48.80;;;;;;3535949;40;20038;-65
2021/05/30 10:30:50;;;;;;;4.15;1.45;;;23.30;48.00;;;;;;3533087;40;20042;-65
2021/05/30 10:33:23;;;;;;;3.90;1.60;;;;;;;;;;3537103;40;20965;-65
2021/05/30 10:35:50;;;;;;;4.90;1.70;;;;;;;;;;3536155;40;20034;-65
2021/05/30 10:38:35;;;;;;;3.55;1.80;;;;;;;;;;3537338;40;20146;-65
2021/05/30 10:41:16;;;;;;;5.50;2.85;;;;;;;;;;3539746;40;20046;-65
2021/05/30 10:43:43;;;;;;;6.43;1.83;;;23.30;47.60;;;;;;3532466;40;20152;-65
2021/05/30 10:46:10;;;;;;;5.43;2.80;;;;;;;;;;3535094;40;20039;-65
2021/05/30 10:48:37;;;;;;;6.78;1.70;;;;;;;;;;3535480;40;20186;-67
2021/05/30 10:51:52;;;;;;;5.03;1.70;;;;;;;;;;3537752;40;20053;-68
2021/05/30 10:54:08;;;;;;;4.70;1.80;;;;;;;;;;3536092;40;20034;-68
2021/05/30 10:56:39;;;;;;;4.20;1.63;;;;;;;;;;3534072;40;20072;-67
2021/05/30 10:59:05;;;;;;;13.07;1.88;;;;;;;;;;3542283;40;20054;-66
2021/05/30 11:01:34;;;;;;;12.65;4.15;;;23.30;48.70;;;;;;3537660;40;20042;-66
2021/05/30 11:04:22;;;;;;;5.32;1.80;;;23.60;47.20;;;;;;3534237;40;20034;-68
2021/05/30 11:06:49;;;;;;;4.47;1.85;;;;;;;;;;3537345;40;20267;-66
2021/05/30 11:09:15;;;;;;;6.68;1.70;;;;;;;;;;3538907;40;20031;-66
2021/05/30 11:11:41;;;;;;;4.65;1.50;;;;;;;;;;3536894;40;20059;-66
2021/05/30 11:14:11;;;;;;;4.07;1.60;;;24.50;45.80;;;;;;3536450;40;20042;-66
2021/05/30 11:16:45;;;;;;;4.13;1.65;;;24.20;46.10;;;;;;3536776;40;20038;-67
2021/05/30 11:19:14;;;;;;;8.90;1.50;;;24.20;46.60;;;;;;3538345;40;20496;-66
2021/05/30 11:21:44;;;;;;;2.95;1.52;;;;;;;;;;3537768;40;20046;-67
2021/05/30 11:24:11;;;;;;;7.15;1.95;;;;;;;;;;3535916;40;20027;-66
2021/05/30 11:26:37;;;;;;;4.93;1.58;;;;;;;;;;3535219;40;20026;-69
2021/05/30 11:29:04;;;;;;;6.47;2.13;;;;;;;;;;3535321;40;20098;-69
2021/05/30 11:31:31;;;;;;;5.10;1.90;;;;;;;;;;3534518;40;20034;-69
2021/05/30 11:34:04;;;;;;;6.07;1.63;;;24.90;47.80;;;;;;3533668;40;20035;-68
2021/05/30 11:36:32;;;;;;;3.33;1.63;;;;;;;;;;3535324;40;20042;-68
2021/05/30 11:39:07;;;;;;;4.50;1.73;;;;;;;;;;3536308;40;20111;-69
2021/05/30 11:41:42;;;;;;;3.92;1.45;;;25.40;43.50;;;;;;3534760;40;20031;-70
2021/05/30 11:44:13;;;;;;;3.38;1.35;;;26.20;45.20;;;;;;3539707;40;20140;-69
2021/05/30 11:46:39;;;;;;;2.03;1.35;;;;;;;;;;3538510;40;20034;-69
2021/05/30 11:49:09;;;;;;;3.60;1.40;;;;;;;;;;3536344;40;20030;-69
2021/05/30 11:51:45;;;;;;;4.63;1.40;;;;;;;;;;3536659;40;20058;-69
2021/05/30 11:54:11;;;;;;;4.07;1.50;;;;;;;;;;3536473;40;20046;-69
2021/05/30 11:56:45;;;;;;;2.08;1.30;;;26.50;43.40;;;;;;3534546;40;20045;-70
2021/05/30 11:59:11;;;;;;;7.07;1.90;;;;;;;;;;3537423;40;20086;-70
2021/05/30 12:01:51;;;;;;;8.95;4.25;;;;;;;;;;3535327;40;20039;-69
2021/05/30 12:04:29;;;;;;;5.65;1.70;;;;;;;;;;3534662;40;20507;-66
2021/05/30 12:06:55;;;;;;;5.68;1.48;;;;;;;;;;3526554;40;20035;-67
2021/05/30 12:09:22;;;;;;;7.00;1.58;;;;;;;;;;3535854;40;20125;-66
2021/05/30 12:11:48;;;;;;;3.65;1.80;;;;;;;;;;3535622;40;20035;-67
2021/05/30 12:14:14;;;;;;;4.60;1.45;;;;;;;;;;3538047;40;20314;-66
2021/05/30 12:16:41;;;;;;;3.70;1.33;;;25.80;43.20;;;;;;3537862;40;20046;-66
2021/05/30 12:19:07;;;;;;;3.83;1.67;;;;;;;;;;3537324;40;20050;-67
2021/05/30 12:21:42;;;;;;;5.30;1.50;;;;;;;;;;3534924;40;20409;-66
2021/05/30 12:24:10;;;;;;;5.30;1.50;;;27.10;41.30;;;;;;3536332;40;20030;-66
2021/05/30 12:26:40;;;;;;;6.45;1.58;;;27.00;40.40;;;;;;3538538;40;20045;-66
2021/05/30 12:29:06;;;;;;;3.70;1.30;;;;;;;;;;3540322;40;20027;-66
2021/05/30 12:31:32;;;;;;;5.35;1.50;;;;;;;;;;3538380;40;20034;-66
2021/05/30 12:34:07;;;;;;;4.13;1.23;;;28.30;42.20;;;;;;3536933;40;20114;-67
2021/05/30 12:36:55;;;;;;;4.65;1.30;;;28.20;40.10;;;;;;3540108;40;20037;-66
2021/05/30 12:39:23;;;;;;;6.75;1.52;;;27.70;40.60;;;;;;3537080;40;20035;-67
2021/05/30 12:41:59;;;;;;;4.32;1.70;;;27.30;40.30;;;;;;3539255;40;20035;-66
2021/05/30 12:44:31;;;;;;;3.75;1.70;;;;;;;;;;3540019;40;20128;-66
2021/05/30 12:47:06;;;;;;;2.47;1.40;;;;;;;;;;3539411;40;20143;-67
2021/05/30 12:49:32;;;;;;;4.85;1.58;;;;;;;;;;3533976;40;20491;-66
2021/05/30 12:52:09;;;;;;;6.05;1.40;;;28.40;39.00;;;;;;3537070;40;20042;-66
2021/05/30 12:54:38;;;;;;;3.95;1.55;;;28.30;40.00;;;;;;3533780;40;20053;-67
2021/05/30 12:57:05;;;;;;;2.97;1.40;;;28.20;40.60;;;;;;3535075;40;20075;-66
2021/05/30 12:59:33;;;;;;;2.13;1.58;;;29.20;39.00;;;;;;3533613;40;20042;-67
2021/05/30 13:02:05;;;;;;;2.58;1.30;;;29.40;42.00;;;;;;3536467;40;20082;-67
2021/05/30 13:04:43;;;;;;;4.47;1.48;;;27.60;40.50;;;;;;3537615;40;20411;-66
2021/05/30 13:07:11;;;;;;;3.95;1.50;;;26.10;42.30;;;;;;3540478;40;20047;-66
2021/05/30 13:09:47;;;;;;;2.88;1.52;;;27.00;40.90;;;;;;3535990;40;20128;-66
2021/05/30 13:12:37;;;;;;;4.32;1.40;;;;;;;;;;3537525;40;20034;-66
2021/05/30 13:15:11;;;;;;;6.68;1.50;;;;;;;;;;3535536;40;20034;-66
2021/05/30 13:17:39;;;;;;;2.47;1.35;;;28.60;38.30;;;;;;3535362;40;20113;-67
2021/05/30 13:20:10;;;;;;;3.33;1.30;;;28.30;38.40;;;;;;3536944;40;20042;-66
2021/05/30 13:22:50;;;;;;;4.60;1.30;;;28.90;38.10;;;;;;3538633;40;20046;-66
2021/05/30 13:25:37;;;;;;;2.45;1.10;;;29.10;36.40;;;;;;3539125;40;20058;-66
2021/05/30 13:28:26;;;;;;;1.60;1.30;;;29.80;36.10;;;;;;3534683;40;20685;-66
2021/05/30 13:30:58;;;;;;;5.50;1.40;;;29.40;37.80;;;;;;3534012;40;20152;-65
2021/05/30 13:33:24;;;;;;;4.47;1.90;;;30.10;35.50;;;;;;3533591;40;20034;-66
2021/05/30 13:35:52;;;;;;;2.25;1.27;;;30.10;36.30;;;;;;3537044;40;20038;-66
2021/05/30 13:38:18;;;;;;;2.85;1.20;;;29.70;39.10;;;;;;3537466;40;20429;-66
2021/05/30 13:40:47;;;;;;;1.67;1.08;;;29.70;37.70;;;;;;3536280;40;20049;-67
2021/05/30 13:43:13;;;;;;;2.20;1.45;;;29.00;38.00;;;;;;3533169;40;20050;-67
2021/05/30 13:45:40;;;;;;;2.35;1.30;;;28.10;38.50;;;;;;3535355;40;20035;-66
2021/05/30 13:48:06;;;;;;;3.20;1.38;;;28.50;37.00;;;;;;3538729;40;20064;-67
2021/05/30 13:50:34;;;;;;;4.50;1.50;;;29.40;36.00;;;;;;3536471;40;20042;-67
2021/05/30 13:53:00;;;;;;;1.83;1.13;;;29.60;36.60;;;;;;3537025;40;20046;-67
2021/05/30 13:55:26;;;;;;;2.40;1.30;;;29.30;37.00;;;;;;3536293;40;20035;-66
2021/05/30 13:57:52;;;;;;;3.70;1.60;;;29.60;37.00;;;;;;3536537;40;20133;-67
2021/05/30 14:00:18;;;;;;;5.55;1.80;;;31.00;36.80;;;;;;3538235;40;20356;-67
2021/05/30 14:02:44;;;;;;;4.43;1.48;;;29.90;37.70;;;;;;3533769;40;20047;-67
2021/05/30 14:05:12;;;;;;;7.05;1.70;;;28.30;38.60;;;;;;3534924;40;20151;-67
2021/05/30 14:07:39;;;;;;;2.63;1.10;;;26.40;39.00;;;;;;3534261;40;20046;-66
2021/05/30 14:10:05;;;;;;;4.18;1.50;;;26.40;40.70;;;;;;3535741;40;20078;-66
2021/05/30 14:12:31;;;;;;;3.90;1.65;;;26.90;39.60;;;;;;3534130;40;20208;-67